sensor_id;sensor_type;location;lat;lon;timestamp;pressure;altitude;pressure_sealevel;temperature
17142;BMP180;32805;53.556;9.944;2023-04-16T00:01:07;101657.00;;;8.60
17142;BMP180;32805;53.556;9.944;2023-04-16T00:03:34;101653.00;;;8.50
17142;BMP180;32805;53.556;9.944;2023-04-16T00:06:02;101657.00;;;8.50
17142;BMP180;32805;53.556;9.944;2023-04-16T00:08:31;101655.00;;;8.50
17142;BMP180;32805;53.556;9.944;2023-04-16T00:11:00;101663.00;;;8.40
17142;BMP180;32805;53.556;9.944;2023-04-16T00:13:28;101660.00;;;8.40
17142;BMP180;32805;53.556;9.944;2023-04-16T00:15:56;101661.00;;;8.40
17142;BMP180;32805;53.556;9.944;2023-04-16T00:18:24;101670.00;;;8.40
17142;BMP180;32805;53.556;9.944;2023-04-16T00:20:53;101672.00;;;8.40
17142;BMP180;32805;53.556;9.944;2023-04-16T00:23:20;101663.00;;;8.40
17142;BMP180;32805;53.556;9.944;2023-04-16T00:25:51;101659.00;;;8.40
17142;BMP180;32805;53.556;9.944;2023-04-16T00:28:19;101662.00;;;8.30
17142;BMP180;32805;53.556;9.944;2023-04-16T00:30:47;101668.00;;;8.30
17142;BMP180;32805;53.556;9.944;2023-04-16T00:33:14;101664.00;;;8.30
17142;BMP180;32805;53.556;9.944;2023-04-16T00:35:44;101651.00;;;8.30
17142;BMP180;32805;53.556;9.944;2023-04-16T00:38:11;101655.00;;;8.30
17142;BMP180;32805;53.556;9.944;2023-04-16T00:40:39;101662.00;;;8.30
17142;BMP180;32805;53.556;9.944;2023-04-16T00:43:08;101668.00;;;8.30
17142;BMP180;32805;53.556;9.944;2023-04-16T00:45:37;101651.00;;;8.30
17142;BMP180;32805;53.556;9.944;2023-04-16T00:48:04;101665.00;;;8.30
17142;BMP180;32805;53.556;9.944;2023-04-16T00:50:32;101659.00;;;8.30
17142;BMP180;32805;53.556;9.944;2023-04-16T00:53:01;101658.00;;;8.40
17142;BMP180;32805;53.556;9.944;2023-04-16T00:55:30;101663.00;;;8.30
17142;BMP180;32805;53.556;9.944;2023-04-16T00:57:57;101648.00;;;8.30
17142;BMP180;32805;53.556;9.944;2023-04-16T01:00:26;101669.00;;;8.40
17142;BMP180;32805;53.556;9.944;2023-04-16T01:02:54;101656.00;;;8.40
17142;BMP180;32805;53.556;9.944;2023-04-16T01:05:22;101665.00;;;8.40
17142;BMP180;32805;53.556;9.944;2023-04-16T01:07:50;101654.00;;;8.40
17142;BMP180;32805;53.556;9.944;2023-04-16T01:10:17;101658.00;;;8.40
17142;BMP180;32805;53.556;9.944;2023-04-16T01:12:45;101668.00;;;8.40
17142;BMP180;32805;53.556;9.944;2023-04-16T01:15:13;101666.00;;;8.40
17142;BMP180;32805;53.556;9.944;2023-04-16T01:17:43;101670.00;;;8.40
17142;BMP180;32805;53.556;9.944;2023-04-16T01:20:11;101673.00;;;8.40
17142;BMP180;32805;53.556;9.944;2023-04-16T01:22:41;101666.00;;;8.50
17142;BMP180;32805;53.556;9.944;2023-04-16T01:25:13;101676.00;;;8.50
17142;BMP180;32805;53.556;9.944;2023-04-16T01:27:40;101674.00;;;8.50
17142;BMP180;32805;53.556;9.944;2023-04-16T01:30:08;101686.00;;;8.50
17142;BMP180;32805;53.556;9.944;2023-04-16T01:32:49;101672.00;;;8.50
17142;BMP180;32805;53.556;9.944;2023-04-16T01:35:17;101685.00;;;8.50
17142;BMP180;32805;53.556;9.944;2023-04-16T01:37:46;101688.00;;;8.50
17142;BMP180;32805;53.556;9.944;2023-04-16T01:40:16;101687.00;;;8.50
17142;BMP180;32805;53.556;9.944;2023-04-16T01:42:43;101686.00;;;8.50
17142;BMP180;32805;53.556;9.944;2023-04-16T01:45:11;101692.00;;;8.50
17142;BMP180;32805;53.556;9.944;2023-04-16T01:47:39;101702.00;;;8.50
17142;BMP180;32805;53.556;9.944;2023-04-16T01:50:08;101693.00;;;8.60
17142;BMP180;32805;53.556;9.944;2023-04-16T01:52:36;101701.00;;;8.50
17142;BMP180;32805;53.556;9.944;2023-04-16T01:55:05;101698.00;;;8.50
17142;BMP180;32805;53.556;9.944;2023-04-16T01:57:33;101705.00;;;8.60
17142;BMP180;32805;53.556;9.944;2023-04-16T02:00:02;101700.00;;;8.60
17142;BMP180;32805;53.556;9.944;2023-04-16T02:02:32;101706.00;;;8.60
17142;BMP180;32805;53.556;9.944;2023-04-16T02:05:00;101704.00;;;8.60
17142;BMP180;32805;53.556;9.944;2023-04-16T02:07:27;101704.00;;;8.50
17142;BMP180;32805;53.556;9.944;2023-04-16T02:09:57;101704.00;;;8.60
17142;BMP180;32805;53.556;9.944;2023-04-16T02:12:26;101710.00;;;8.60
17142;BMP180;32805;53.556;9.944;2023-04-16T02:14:54;101715.00;;;8.60
17142;BMP180;32805;53.556;9.944;2023-04-16T02:17:24;101705.00;;;8.60
17142;BMP180;32805;53.556;9.944;2023-04-16T02:20:04;101706.00;;;8.70
17142;BMP180;32805;53.556;9.944;2023-04-16T02:22:36;101703.00;;;8.70
17142;BMP180;32805;53.556;9.944;2023-04-16T02:25:04;101712.00;;;8.70
17142;BMP180;32805;53.556;9.944;2023-04-16T02:27:33;101708.00;;;8.70
17142;BMP180;32805;53.556;9.944;2023-04-16T02:30:18;101718.00;;;8.60
17142;BMP180;32805;53.556;9.944;2023-04-16T02:32:46;101717.00;;;8.70
17142;BMP180;32805;53.556;9.944;2023-04-16T02:35:15;101717.00;;;8.70
17142;BMP180;32805;53.556;9.944;2023-04-16T02:37:43;101714.00;;;8.60
17142;BMP180;32805;53.556;9.944;2023-04-16T02:40:11;101712.00;;;8.60
17142;BMP180;32805;53.556;9.944;2023-04-16T02:42:40;101718.00;;;8.70
17142;BMP180;32805;53.556;9.944;2023-04-16T02:45:09;101711.00;;;8.60
17142;BMP180;32805;53.556;9.944;2023-04-16T02:47:37;101707.00;;;8.70
17142;BMP180;32805;53.556;9.944;2023-04-16T02:50:05;101717.00;;;8.70
17142;BMP180;32805;53.556;9.944;2023-04-16T02:52:33;101718.00;;;8.60
17142;BMP180;32805;53.556;9.944;2023-04-16T02:55:01;101724.00;;;8.70
17142;BMP180;32805;53.556;9.944;2023-04-16T02:57:28;101718.00;;;8.70
17142;BMP180;32805;53.556;9.944;2023-04-16T02:59:58;101720.00;;;8.70
17142;BMP180;32805;53.556;9.944;2023-04-16T03:02:25;101727.00;;;8.60
17142;BMP180;32805;53.556;9.944;2023-04-16T03:04:53;101729.00;;;8.60
17142;BMP180;32805;53.556;9.944;2023-04-16T03:07:21;101730.00;;;8.70
17142;BMP180;32805;53.556;9.944;2023-04-16T03:09:48;101721.00;;;8.70
17142;BMP180;32805;53.556;9.944;2023-04-16T03:12:16;101739.00;;;8.70
17142;BMP180;32805;53.556;9.944;2023-04-16T03:14:44;101730.00;;;8.70
17142;BMP180;32805;53.556;9.944;2023-04-16T03:17:12;101733.00;;;8.70
17142;BMP180;32805;53.556;9.944;2023-04-16T03:19:40;101728.00;;;8.70
17142;BMP180;32805;53.556;9.944;2023-04-16T03:22:08;101731.00;;;8.70
17142;BMP180;32805;53.556;9.944;2023-04-16T03:24:35;101733.00;;;8.70
17142;BMP180;32805;53.556;9.944;2023-04-16T03:27:03;101737.00;;;8.70
17142;BMP180;32805;53.556;9.944;2023-04-16T03:29:31;101736.00;;;8.70
17142;BMP180;32805;53.556;9.944;2023-04-16T03:31:59;101738.00;;;8.70
17142;BMP180;32805;53.556;9.944;2023-04-16T03:34:28;101729.00;;;8.70
17142;BMP180;32805;53.556;9.944;2023-04-16T03:36:55;101737.00;;;8.70
17142;BMP180;32805;53.556;9.944;2023-04-16T03:39:24;101732.00;;;8.70
17142;BMP180;32805;53.556;9.944;2023-04-16T03:41:51;101733.00;;;8.70
17142;BMP180;32805;53.556;9.944;2023-04-16T03:44:19;101738.00;;;8.70
17142;BMP180;32805;53.556;9.944;2023-04-16T03:46:47;101743.00;;;8.70
17142;BMP180;32805;53.556;9.944;2023-04-16T03:49:14;101740.00;;;8.70
17142;BMP180;32805;53.556;9.944;2023-04-16T03:51:43;101741.00;;;8.80
17142;BMP180;32805;53.556;9.944;2023-04-16T03:54:11;101732.00;;;8.80
17142;BMP180;32805;53.556;9.944;2023-04-16T03:56:41;101742.00;;;8.80
17142;BMP180;32805;53.556;9.944;2023-04-16T03:59:09;101737.00;;;8.80
17142;BMP180;32805;53.556;9.944;2023-04-16T04:01:37;101740.00;;;8.80
17142;BMP180;32805;53.556;9.944;2023-04-16T04:04:05;101748.00;;;8.80
17142;BMP180;32805;53.556;9.944;2023-04-16T04:06:34;101741.00;;;8.80
17142;BMP180;32805;53.556;9.944;2023-04-16T04:09:04;101740.00;;;8.80
17142;BMP180;32805;53.556;9.944;2023-04-16T04:11:31;101735.00;;;8.80
17142;BMP180;32805;53.556;9.944;2023-04-16T04:13:59;101738.00;;;8.80
17142;BMP180;32805;53.556;9.944;2023-04-16T04:16:27;101736.00;;;8.90
17142;BMP180;32805;53.556;9.944;2023-04-16T04:18:58;101747.00;;;8.90
17142;BMP180;32805;53.556;9.944;2023-04-16T04:21:26;101752.00;;;8.90
17142;BMP180;32805;53.556;9.944;2023-04-16T04:23:54;101752.00;;;8.90
17142;BMP180;32805;53.556;9.944;2023-04-16T04:26:23;101757.00;;;8.90
17142;BMP180;32805;53.556;9.944;2023-04-16T04:28:51;101759.00;;;8.90
17142;BMP180;32805;53.556;9.944;2023-04-16T04:31:18;101767.00;;;8.90
17142;BMP180;32805;53.556;9.944;2023-04-16T04:33:46;101761.00;;;8.90
17142;BMP180;32805;53.556;9.944;2023-04-16T04:36:14;101763.00;;;8.90
17142;BMP180;32805;53.556;9.944;2023-04-16T04:38:41;101766.00;;;8.90
17142;BMP180;32805;53.556;9.944;2023-04-16T04:41:09;101762.00;;;8.90
17142;BMP180;32805;53.556;9.944;2023-04-16T04:43:39;101769.00;;;8.90
17142;BMP180;32805;53.556;9.944;2023-04-16T04:46:06;101767.00;;;8.80
17142;BMP180;32805;53.556;9.944;2023-04-16T04:48:34;101772.00;;;8.80
17142;BMP180;32805;53.556;9.944;2023-04-16T04:51:02;101771.00;;;8.90
17142;BMP180;32805;53.556;9.944;2023-04-16T04:53:33;101765.00;;;8.90
17142;BMP180;32805;53.556;9.944;2023-04-16T04:56:00;101775.00;;;9.00
17142;BMP180;32805;53.556;9.944;2023-04-16T04:58:40;101773.00;;;9.00
17142;BMP180;32805;53.556;9.944;2023-04-16T05:01:08;101781.00;;;8.90
17142;BMP180;32805;53.556;9.944;2023-04-16T05:03:35;101777.00;;;8.90
17142;BMP180;32805;53.556;9.944;2023-04-16T05:06:03;101774.00;;;8.90
17142;BMP180;32805;53.556;9.944;2023-04-16T05:08:31;101780.00;;;9.00
17142;BMP180;32805;53.556;9.944;2023-04-16T05:10:59;101780.00;;;9.00
17142;BMP180;32805;53.556;9.944;2023-04-16T05:13:26;101783.00;;;9.00
17142;BMP180;32805;53.556;9.944;2023-04-16T05:15:55;101781.00;;;9.00
17142;BMP180;32805;53.556;9.944;2023-04-16T05:18:23;101787.00;;;9.00
17142;BMP180;32805;53.556;9.944;2023-04-16T05:20:50;101788.00;;;9.00
17142;BMP180;32805;53.556;9.944;2023-04-16T05:23:18;101783.00;;;9.00
17142;BMP180;32805;53.556;9.944;2023-04-16T05:25:46;101791.00;;;9.00
17142;BMP180;32805;53.556;9.944;2023-04-16T05:28:13;101788.00;;;9.10
17142;BMP180;32805;53.556;9.944;2023-04-16T05:30:41;101792.00;;;9.20
17142;BMP180;32805;53.556;9.944;2023-04-16T05:33:11;101809.00;;;9.10
17142;BMP180;32805;53.556;9.944;2023-04-16T05:35:39;101796.00;;;9.20
17142;BMP180;32805;53.556;9.944;2023-04-16T05:38:06;101802.00;;;9.20
17142;BMP180;32805;53.556;9.944;2023-04-16T05:40:34;101804.00;;;9.20
17142;BMP180;32805;53.556;9.944;2023-04-16T05:43:01;101805.00;;;9.20
17142;BMP180;32805;53.556;9.944;2023-04-16T05:45:29;101816.00;;;9.20
17142;BMP180;32805;53.556;9.944;2023-04-16T05:47:58;101822.00;;;9.20
17142;BMP180;32805;53.556;9.944;2023-04-16T05:50:27;101810.00;;;9.20
17142;BMP180;32805;53.556;9.944;2023-04-16T05:52:55;101816.00;;;9.10
17142;BMP180;32805;53.556;9.944;2023-04-16T05:55:22;101830.00;;;9.20
17142;BMP180;32805;53.556;9.944;2023-04-16T05:57:50;101824.00;;;9.20
17142;BMP180;32805;53.556;9.944;2023-04-16T06:00:19;101822.00;;;9.20
17142;BMP180;32805;53.556;9.944;2023-04-16T06:02:47;101825.00;;;9.30
17142;BMP180;32805;53.556;9.944;2023-04-16T06:05:14;101823.00;;;9.30
17142;BMP180;32805;53.556;9.944;2023-04-16T06:07:44;101826.00;;;9.30
17142;BMP180;32805;53.556;9.944;2023-04-16T06:10:11;101823.00;;;9.40
17142;BMP180;32805;53.556;9.944;2023-04-16T06:12:39;101822.00;;;9.40
17142;BMP180;32805;53.556;9.944;2023-04-16T06:15:08;101832.00;;;9.40
17142;BMP180;32805;53.556;9.944;2023-04-16T06:17:35;101833.00;;;9.50
17142;BMP180;32805;53.556;9.944;2023-04-16T06:20:04;101839.00;;;9.50
17142;BMP180;32805;53.556;9.944;2023-04-16T06:22:32;101838.00;;;9.50
17142;BMP180;32805;53.556;9.944;2023-04-16T06:25:02;101839.00;;;9.50
17142;BMP180;32805;53.556;9.944;2023-04-16T06:27:29;101830.00;;;9.50
17142;BMP180;32805;53.556;9.944;2023-04-16T06:29:57;101835.00;;;9.60
17142;BMP180;32805;53.556;9.944;2023-04-16T06:32:25;101843.00;;;9.70
17142;BMP180;32805;53.556;9.944;2023-04-16T06:34:52;101842.00;;;9.60
17142;BMP180;32805;53.556;9.944;2023-04-16T06:37:21;101842.00;;;9.70
17142;BMP180;32805;53.556;9.944;2023-04-16T06:39:49;101836.00;;;9.70
17142;BMP180;32805;53.556;9.944;2023-04-16T06:42:19;101846.00;;;9.80
17142;BMP180;32805;53.556;9.944;2023-04-16T06:44:46;101846.00;;;9.80
17142;BMP180;32805;53.556;9.944;2023-04-16T06:47:14;101853.00;;;9.80
17142;BMP180;32805;53.556;9.944;2023-04-16T06:49:42;101855.00;;;9.80
17142;BMP180;32805;53.556;9.944;2023-04-16T06:52:10;101855.00;;;9.90
17142;BMP180;32805;53.556;9.944;2023-04-16T06:54:38;101857.00;;;9.80
17142;BMP180;32805;53.556;9.944;2023-04-16T06:57:05;101858.00;;;9.80
17142;BMP180;32805;53.556;9.944;2023-04-16T06:59:34;101861.00;;;9.70
17142;BMP180;32805;53.556;9.944;2023-04-16T07:02:02;101854.00;;;9.70
17142;BMP180;32805;53.556;9.944;2023-04-16T07:04:30;101861.00;;;9.80
17142;BMP180;32805;53.556;9.944;2023-04-16T07:06:57;101870.00;;;9.80
17142;BMP180;32805;53.556;9.944;2023-04-16T07:09:25;101870.00;;;9.80
17142;BMP180;32805;53.556;9.944;2023-04-16T07:11:53;101884.00;;;9.80
17142;BMP180;32805;53.556;9.944;2023-04-16T07:14:21;101878.00;;;9.90
17142;BMP180;32805;53.556;9.944;2023-04-16T07:16:50;101873.00;;;9.90
17142;BMP180;32805;53.556;9.944;2023-04-16T07:19:18;101883.00;;;10.00
17142;BMP180;32805;53.556;9.944;2023-04-16T07:21:45;101878.00;;;10.10
17142;BMP180;32805;53.556;9.944;2023-04-16T07:24:13;101882.00;;;10.10
17142;BMP180;32805;53.556;9.944;2023-04-16T07:26:41;101871.00;;;10.30
17142;BMP180;32805;53.556;9.944;2023-04-16T07:29:08;101870.00;;;10.30
17142;BMP180;32805;53.556;9.944;2023-04-16T07:31:37;101882.00;;;10.40
17142;BMP180;32805;53.556;9.944;2023-04-16T07:34:06;101880.00;;;10.50
17142;BMP180;32805;53.556;9.944;2023-04-16T07:36:33;101880.00;;;10.50
17142;BMP180;32805;53.556;9.944;2023-04-16T07:39:03;101887.00;;;10.60
17142;BMP180;32805;53.556;9.944;2023-04-16T07:41:33;101870.00;;;10.80
17142;BMP180;32805;53.556;9.944;2023-04-16T07:44:01;101887.00;;;10.90
17142;BMP180;32805;53.556;9.944;2023-04-16T07:46:29;101880.00;;;10.80
17142;BMP180;32805;53.556;9.944;2023-04-16T07:49:13;101891.00;;;10.70
17142;BMP180;32805;53.556;9.944;2023-04-16T07:51:41;101885.00;;;10.60
17142;BMP180;32805;53.556;9.944;2023-04-16T07:54:09;101893.00;;;10.50
17142;BMP180;32805;53.556;9.944;2023-04-16T07:56:39;101889.00;;;10.60
17142;BMP180;32805;53.556;9.944;2023-04-16T07:59:08;101886.00;;;10.60
17142;BMP180;32805;53.556;9.944;2023-04-16T08:01:54;101888.00;;;10.70
17142;BMP180;32805;53.556;9.944;2023-04-16T08:04:25;101892.00;;;10.80
17142;BMP180;32805;53.556;9.944;2023-04-16T08:06:55;101898.00;;;10.90
17142;BMP180;32805;53.556;9.944;2023-04-16T08:09:25;101897.00;;;10.90
17142;BMP180;32805;53.556;9.944;2023-04-16T08:11:53;101900.00;;;10.80
17142;BMP180;32805;53.556;9.944;2023-04-16T08:14:24;101897.00;;;10.80
17142;BMP180;32805;53.556;9.944;2023-04-16T08:16:57;101917.00;;;10.90
17142;BMP180;32805;53.556;9.944;2023-04-16T08:19:26;101897.00;;;11.00
17142;BMP180;32805;53.556;9.944;2023-04-16T08:21:54;101912.00;;;11.00
17142;BMP180;32805;53.556;9.944;2023-04-16T08:24:22;101902.00;;;11.10
17142;BMP180;32805;53.556;9.944;2023-04-16T08:26:50;101905.00;;;11.20
17142;BMP180;32805;53.556;9.944;2023-04-16T08:29:18;101907.00;;;11.20
17142;BMP180;32805;53.556;9.944;2023-04-16T08:31:46;101912.00;;;11.20
17142;BMP180;32805;53.556;9.944;2023-04-16T08:34:14;101921.00;;;11.30
17142;BMP180;32805;53.556;9.944;2023-04-16T08:36:43;101919.00;;;11.40
17142;BMP180;32805;53.556;9.944;2023-04-16T08:39:11;101918.00;;;11.60
17142;BMP180;32805;53.556;9.944;2023-04-16T08:41:42;101932.00;;;11.70
17142;BMP180;32805;53.556;9.944;2023-04-16T08:44:14;101921.00;;;11.80
17142;BMP180;32805;53.556;9.944;2023-04-16T08:46:46;101928.00;;;11.90
17142;BMP180;32805;53.556;9.944;2023-04-16T08:49:15;101932.00;;;11.90
17142;BMP180;32805;53.556;9.944;2023-04-16T08:51:49;101947.00;;;11.90
17142;BMP180;32805;53.556;9.944;2023-04-16T08:54:30;101927.00;;;11.80
17142;BMP180;32805;53.556;9.944;2023-04-16T08:56:59;101931.00;;;11.80
17142;BMP180;32805;53.556;9.944;2023-04-16T08:59:28;101936.00;;;11.70
17142;BMP180;32805;53.556;9.944;2023-04-16T09:01:57;101931.00;;;11.70
17142;BMP180;32805;53.556;9.944;2023-04-16T09:04:26;101933.00;;;11.90
17142;BMP180;32805;53.556;9.944;2023-04-16T09:06:57;101937.00;;;12.00
17142;BMP180;32805;53.556;9.944;2023-04-16T09:09:25;101929.00;;;12.10
17142;BMP180;32805;53.556;9.944;2023-04-16T09:11:53;101932.00;;;12.10
17142;BMP180;32805;53.556;9.944;2023-04-16T09:14:24;101936.00;;;12.10
17142;BMP180;32805;53.556;9.944;2023-04-16T09:16:52;101930.00;;;12.10
17142;BMP180;32805;53.556;9.944;2023-04-16T09:19:21;101932.00;;;12.10
17142;BMP180;32805;53.556;9.944;2023-04-16T09:21:49;101939.00;;;12.10
17142;BMP180;32805;53.556;9.944;2023-04-16T09:24:18;101939.00;;;12.20
17142;BMP180;32805;53.556;9.944;2023-04-16T09:26:47;101937.00;;;12.30
17142;BMP180;32805;53.556;9.944;2023-04-16T09:29:32;101947.00;;;12.30
17142;BMP180;32805;53.556;9.944;2023-04-16T09:32:01;101951.00;;;12.20
17142;BMP180;32805;53.556;9.944;2023-04-16T09:34:31;101940.00;;;12.30
17142;BMP180;32805;53.556;9.944;2023-04-16T09:37:14;101943.00;;;12.40
17142;BMP180;32805;53.556;9.944;2023-04-16T09:39:44;101939.00;;;12.70
17142;BMP180;32805;53.556;9.944;2023-04-16T09:42:20;101946.00;;;12.80
17142;BMP180;32805;53.556;9.944;2023-04-16T09:44:49;101948.00;;;12.80
17142;BMP180;32805;53.556;9.944;2023-04-16T09:47:17;101955.00;;;12.80
17142;BMP180;32805;53.556;9.944;2023-04-16T09:49:44;101968.00;;;12.60
17142;BMP180;32805;53.556;9.944;2023-04-16T09:52:13;101973.00;;;12.60
17142;BMP180;32805;53.556;9.944;2023-04-16T09:54:47;101959.00;;;12.50
17142;BMP180;32805;53.556;9.944;2023-04-16T09:57:17;101968.00;;;12.50
17142;BMP180;32805;53.556;9.944;2023-04-16T09:59:47;101972.00;;;12.40
17142;BMP180;32805;53.556;9.944;2023-04-16T10:02:16;101975.00;;;12.60
17142;BMP180;32805;53.556;9.944;2023-04-16T10:04:45;101961.00;;;12.60
17142;BMP180;32805;53.556;9.944;2023-04-16T10:07:14;101983.00;;;12.40
17142;BMP180;32805;53.556;9.944;2023-04-16T10:09:41;101978.00;;;12.50
17142;BMP180;32805;53.556;9.944;2023-04-16T10:12:11;101979.00;;;12.50
17142;BMP180;32805;53.556;9.944;2023-04-16T10:14:41;101969.00;;;12.50
17142;BMP180;32805;53.556;9.944;2023-04-16T10:17:25;101987.00;;;12.50
17142;BMP180;32805;53.556;9.944;2023-04-16T10:19:56;101979.00;;;12.50
17142;BMP180;32805;53.556;9.944;2023-04-16T10:22:24;101979.00;;;12.60
17142;BMP180;32805;53.556;9.944;2023-04-16T10:24:53;101984.00;;;12.70
17142;BMP180;32805;53.556;9.944;2023-04-16T10:27:23;101977.00;;;12.70
17142;BMP180;32805;53.556;9.944;2023-04-16T10:29:52;101987.00;;;12.70
17142;BMP180;32805;53.556;9.944;2023-04-16T10:32:20;101989.00;;;12.80
17142;BMP180;32805;53.556;9.944;2023-04-16T10:34:53;101989.00;;;12.90
17142;BMP180;32805;53.556;9.944;2023-04-16T10:37:28;101994.00;;;12.90
17142;BMP180;32805;53.556;9.944;2023-04-16T10:39:57;102011.00;;;12.80
17142;BMP180;32805;53.556;9.944;2023-04-16T10:42:26;102004.00;;;12.60
17142;BMP180;32805;53.556;9.944;2023-04-16T10:44:58;102003.00;;;12.70
17142;BMP180;32805;53.556;9.944;2023-04-16T10:47:27;102007.00;;;12.80
17142;BMP180;32805;53.556;9.944;2023-04-16T10:49:57;102002.00;;;13.00
17142;BMP180;32805;53.556;9.944;2023-04-16T10:52:28;101996.00;;;13.10
17142;BMP180;32805;53.556;9.944;2023-04-16T10:54:58;102005.00;;;13.00
17142;BMP180;32805;53.556;9.944;2023-04-16T10:57:28;102004.00;;;13.00
17142;BMP180;32805;53.556;9.944;2023-04-16T10:59:55;102007.00;;;13.00
17142;BMP180;32805;53.556;9.944;2023-04-16T11:02:27;102007.00;;;13.00
17142;BMP180;32805;53.556;9.944;2023-04-16T11:04:56;102006.00;;;13.00
17142;BMP180;32805;53.556;9.944;2023-04-16T11:07:32;102000.00;;;13.00
17142;BMP180;32805;53.556;9.944;2023-04-16T11:10:03;102007.00;;;13.00
17142;BMP180;32805;53.556;9.944;2023-04-16T11:12:34;102005.00;;;13.00
17142;BMP180;32805;53.556;9.944;2023-04-16T11:15:04;102004.00;;;13.10
17142;BMP180;32805;53.556;9.944;2023-04-16T11:17:36;102008.00;;;13.20
17142;BMP180;32805;53.556;9.944;2023-04-16T11:20:06;102016.00;;;13.20
17142;BMP180;32805;53.556;9.944;2023-04-16T11:22:46;102010.00;;;13.20
17142;BMP180;32805;53.556;9.944;2023-04-16T11:25:18;102021.00;;;13.20
17142;BMP180;32805;53.556;9.944;2023-04-16T11:27:47;102017.00;;;13.10
17142;BMP180;32805;53.556;9.944;2023-04-16T11:30:15;102016.00;;;13.00
17142;BMP180;32805;53.556;9.944;2023-04-16T11:32:44;102018.00;;;12.90
17142;BMP180;32805;53.556;9.944;2023-04-16T11:35:13;102028.00;;;12.80
17142;BMP180;32805;53.556;9.944;2023-04-16T11:37:43;102023.00;;;12.70
17142;BMP180;32805;53.556;9.944;2023-04-16T11:40:11;102014.00;;;12.50
17142;BMP180;32805;53.556;9.944;2023-04-16T11:42:40;102028.00;;;12.40
17142;BMP180;32805;53.556;9.944;2023-04-16T11:45:11;102028.00;;;12.40
17142;BMP180;32805;53.556;9.944;2023-04-16T11:47:43;102024.00;;;12.30
17142;BMP180;32805;53.556;9.944;2023-04-16T11:50:19;102038.00;;;12.30
17142;BMP180;32805;53.556;9.944;2023-04-16T11:52:47;102035.00;;;12.30
17142;BMP180;32805;53.556;9.944;2023-04-16T11:55:16;102040.00;;;12.30
17142;BMP180;32805;53.556;9.944;2023-04-16T11:57:44;102049.00;;;12.40
17142;BMP180;32805;53.556;9.944;2023-04-16T12:00:14;102033.00;;;12.30
17142;BMP180;32805;53.556;9.944;2023-04-16T12:02:43;102040.00;;;12.40
17142;BMP180;32805;53.556;9.944;2023-04-16T12:05:25;102046.00;;;12.50
17142;BMP180;32805;53.556;9.944;2023-04-16T12:07:54;102044.00;;;12.70
17142;BMP180;32805;53.556;9.944;2023-04-16T12:10:21;102025.00;;;12.70
17142;BMP180;32805;53.556;9.944;2023-04-16T12:12:49;102040.00;;;12.80
17142;BMP180;32805;53.556;9.944;2023-04-16T12:15:25;102046.00;;;12.80
17142;BMP180;32805;53.556;9.944;2023-04-16T12:18:09;102040.00;;;12.80
17142;BMP180;32805;53.556;9.944;2023-04-16T12:20:38;102060.00;;;12.80
17142;BMP180;32805;53.556;9.944;2023-04-16T12:23:07;102054.00;;;12.70
17142;BMP180;32805;53.556;9.944;2023-04-16T12:25:34;102049.00;;;12.60
17142;BMP180;32805;53.556;9.944;2023-04-16T12:28:02;102051.00;;;12.50
17142;BMP180;32805;53.556;9.944;2023-04-16T12:30:31;102058.00;;;12.40
17142;BMP180;32805;53.556;9.944;2023-04-16T12:33:16;102058.00;;;12.30
17142;BMP180;32805;53.556;9.944;2023-04-16T12:35:43;102050.00;;;12.40
17142;BMP180;32805;53.556;9.944;2023-04-16T12:38:11;102064.00;;;12.40
17142;BMP180;32805;53.556;9.944;2023-04-16T12:40:40;102065.00;;;12.60
17142;BMP180;32805;53.556;9.944;2023-04-16T12:43:08;102050.00;;;12.70
17142;BMP180;32805;53.556;9.944;2023-04-16T12:45:38;102061.00;;;12.80
17142;BMP180;32805;53.556;9.944;2023-04-16T12:48:06;102056.00;;;12.80
17142;BMP180;32805;53.556;9.944;2023-04-16T12:50:33;102051.00;;;12.80
17142;BMP180;32805;53.556;9.944;2023-04-16T12:53:01;102056.00;;;12.80
17142;BMP180;32805;53.556;9.944;2023-04-16T12:55:29;102053.00;;;12.90
17142;BMP180;32805;53.556;9.944;2023-04-16T12:57:56;102051.00;;;12.80
17142;BMP180;32805;53.556;9.944;2023-04-16T13:00:24;102044.00;;;12.90
17142;BMP180;32805;53.556;9.944;2023-04-16T13:02:53;102048.00;;;13.00
17142;BMP180;32805;53.556;9.944;2023-04-16T13:05:21;102048.00;;;12.80
17142;BMP180;32805;53.556;9.944;2023-04-16T13:07:49;102055.00;;;12.90
17142;BMP180;32805;53.556;9.944;2023-04-16T13:10:16;102047.00;;;12.90
17142;BMP180;32805;53.556;9.944;2023-04-16T13:12:44;102049.00;;;12.80
17142;BMP180;32805;53.556;9.944;2023-04-16T13:15:12;102054.00;;;12.70
17142;BMP180;32805;53.556;9.944;2023-04-16T13:17:39;102050.00;;;12.80
17142;BMP180;32805;53.556;9.944;2023-04-16T13:20:09;102061.00;;;12.70
17142;BMP180;32805;53.556;9.944;2023-04-16T13:22:38;102059.00;;;12.80
17142;BMP180;32805;53.556;9.944;2023-04-16T13:25:07;102066.00;;;12.80
17142;BMP180;32805;53.556;9.944;2023-04-16T13:27:35;102056.00;;;12.70
17142;BMP180;32805;53.556;9.944;2023-04-16T13:30:03;102063.00;;;12.60
17142;BMP180;32805;53.556;9.944;2023-04-16T13:32:30;102068.00;;;12.60
17142;BMP180;32805;53.556;9.944;2023-04-16T13:34:58;102065.00;;;12.60
17142;BMP180;32805;53.556;9.944;2023-04-16T13:37:27;102069.00;;;12.60
17142;BMP180;32805;53.556;9.944;2023-04-16T13:39:54;102069.00;;;12.50
17142;BMP180;32805;53.556;9.944;2023-04-16T13:42:22;102067.00;;;12.50
17142;BMP180;32805;53.556;9.944;2023-04-16T13:44:50;102072.00;;;12.40
17142;BMP180;32805;53.556;9.944;2023-04-16T13:47:20;102075.00;;;12.40
17142;BMP180;32805;53.556;9.944;2023-04-16T13:49:48;102076.00;;;12.40
17142;BMP180;32805;53.556;9.944;2023-04-16T13:52:15;102074.00;;;12.40
17142;BMP180;32805;53.556;9.944;2023-04-16T13:54:44;102075.00;;;12.30
17142;BMP180;32805;53.556;9.944;2023-04-16T13:57:18;102069.00;;;12.30
17142;BMP180;32805;53.556;9.944;2023-04-16T13:59:46;102068.00;;;12.30
17142;BMP180;32805;53.556;9.944;2023-04-16T14:02:13;102075.00;;;12.40
17142;BMP180;32805;53.556;9.944;2023-04-16T14:04:41;102063.00;;;12.30
17142;BMP180;32805;53.556;9.944;2023-04-16T14:07:08;102061.00;;;12.40
17142;BMP180;32805;53.556;9.944;2023-04-16T14:09:36;102060.00;;;12.30
17142;BMP180;32805;53.556;9.944;2023-04-16T14:12:08;102059.00;;;12.20
17142;BMP180;32805;53.556;9.944;2023-04-16T14:14:35;102061.00;;;12.20